createdAt,value
2023-04-17T03:58:51.458Z,14.89
2023-04-17T04:01:54.790Z,14.89
2023-04-17T04:04:57.586Z,14.31
2023-04-17T04:08:00.360Z,14.28
2023-04-17T04:11:03.603Z,14.28
2023-04-17T04:14:06.723Z,14.33
2023-04-17T04:17:09.199Z,14.32
2023-04-17T04:20:11.535Z,14.44
2023-04-17T04:23:16.808Z,14.65
2023-04-17T04:26:21.645Z,14.73
2023-04-17T04:29:25.558Z,14.82
2023-04-17T04:32:28.631Z,14.79
2023-04-17T04:35:31.464Z,14.72
2023-04-17T04:38:33.720Z,14.84
2023-04-17T04:41:36.229Z,14.92
2023-04-17T04:44:39.073Z,14.87
2023-04-17T04:47:42.721Z,14.83
2023-04-17T04:50:45.666Z,14.84
2023-04-17T04:53:48.529Z,14.86
2023-04-17T04:56:51.243Z,14.87
2023-04-17T04:59:53.692Z,14.99
2023-04-17T05:02:58.221Z,15.03
2023-04-17T05:06:01.867Z,15.00
2023-04-17T05:09:05.793Z,14.99
2023-04-17T05:12:08.205Z,14.96
2023-04-17T05:15:10.896Z,14.87
2023-04-17T05:18:13.319Z,14.88
2023-04-17T05:21:16.055Z,14.89
2023-04-17T05:24:19.093Z,14.87
2023-04-17T05:27:21.932Z,14.79
2023-04-17T05:30:24.613Z,14.86
2023-04-17T05:33:28.322Z,14.82
2023-04-17T05:36:31.881Z,14.95
2023-04-17T05:39:34.467Z,14.94
2023-04-17T05:42:37.002Z,15.03
2023-04-17T05:45:41.849Z,14.93
2023-04-17T05:48:44.836Z,15.01
2023-04-17T05:51:47.594Z,15.16
2023-04-17T05:54:50.970Z,15.21
2023-04-17T05:57:55.643Z,15.22
2023-04-17T06:01:00.283Z,15.23
2023-04-17T06:04:03.884Z,15.04
2023-04-17T06:07:08.137Z,15.13
2023-04-17T06:10:11.126Z,15.07
2023-04-17T06:13:13.831Z,15.10
2023-04-17T06:16:18.495Z,14.88
2023-04-17T06:19:23.871Z,14.88
2023-04-17T06:22:26.566Z,15.07
2023-04-17T06:25:29.670Z,15.01
2023-04-17T06:28:32.341Z,15.09
2023-04-17T06:31:35.011Z,15.26
2023-04-17T06:34:48.953Z,15.33
2023-04-17T06:38:04.357Z,15.20
2023-04-17T06:41:07.003Z,15.24
2023-04-17T06:44:10.969Z,15.34
2023-04-17T06:47:17.260Z,15.35
2023-04-17T06:50:22.092Z,15.43
2023-04-17T06:53:24.756Z,15.38
2023-04-17T06:56:28.149Z,15.59
2023-04-17T06:59:30.700Z,15.33
2023-04-17T07:02:33.625Z,15.25
2023-04-17T07:05:36.377Z,15.41
2023-04-17T07:08:38.948Z,15.24
2023-04-17T07:11:41.351Z,15.37
2023-04-17T07:14:43.583Z,15.31
2023-04-17T07:17:46.101Z,15.38
2023-04-17T07:20:49.192Z,15.50
2023-04-17T07:23:51.713Z,15.53
2023-04-17T07:26:54.000Z,15.54
2023-04-17T07:29:56.476Z,15.67
2023-04-17T07:32:58.918Z,15.87
2023-04-17T07:36:02.492Z,15.91
2023-04-17T07:39:06.293Z,15.95
2023-04-17T07:42:09.103Z,16.12
2023-04-17T07:45:11.722Z,16.13
2023-04-17T07:48:14.332Z,16.09
2023-04-17T07:51:16.930Z,16.24
2023-04-17T07:54:19.859Z,16.44
2023-04-17T07:57:23.241Z,16.62
2023-04-17T08:00:25.764Z,16.62
2023-04-17T08:03:28.397Z,16.50
2023-04-17T08:06:31.274Z,16.51
2023-04-17T08:09:34.117Z,16.59
2023-04-17T08:12:36.821Z,16.67
2023-04-17T08:15:40.715Z,16.79
2023-04-17T08:18:42.995Z,16.59
2023-04-17T08:21:47.703Z,16.67
2023-04-17T08:24:54.183Z,16.76
2023-04-17T08:27:56.627Z,16.80
2023-04-17T08:30:58.832Z,16.76
2023-04-17T08:34:10.890Z,17.07
2023-04-17T08:37:16.891Z,16.95
2023-04-17T08:40:23.204Z,16.91
2023-04-17T08:43:28.520Z,16.91
2023-04-17T08:46:31.844Z,16.99
2023-04-17T08:49:35.414Z,17.07
2023-04-17T08:52:46.757Z,17.13
2023-04-17T08:55:48.986Z,17.12
2023-04-17T08:58:51.479Z,17.01
2023-04-17T09:02:04.580Z,17.08
2023-04-17T09:05:19.200Z,17.14
2023-04-17T09:08:24.217Z,17.25
2023-04-17T09:11:27.679Z,17.30
2023-04-17T09:14:30.657Z,17.38
2023-04-17T09:17:36.143Z,17.40
2023-04-17T09:20:50.391Z,17.45
2023-04-17T09:23:56.244Z,17.35
2023-04-17T09:27:22.704Z,17.34
2023-04-17T09:30:26.852Z,17.42
2023-04-17T09:33:29.095Z,17.52
2023-04-17T09:36:33.410Z,17.56
2023-04-17T09:39:36.195Z,17.70
2023-04-17T09:43:03.089Z,17.64
2023-04-17T09:46:05.426Z,17.78
2023-04-17T09:49:23.129Z,17.80
2023-04-17T09:52:25.649Z,17.80
2023-04-17T09:55:36.854Z,17.57
2023-04-17T09:58:40.735Z,17.64
2023-04-17T10:01:44.186Z,17.69
2023-04-17T10:04:47.418Z,17.76
2023-04-17T10:07:49.633Z,17.85
2023-04-17T10:10:52.329Z,17.91
2023-04-17T10:14:19.487Z,17.99
2023-04-17T10:17:34.654Z,17.89
2023-04-17T10:20:38.743Z,17.87
2023-04-17T10:23:41.154Z,17.87
2023-04-17T10:26:43.707Z,17.72
2023-04-17T10:29:57.047Z,17.70
2023-04-17T10:33:19.940Z,17.72
2023-04-17T10:36:40.811Z,17.80
2023-04-17T10:39:59.812Z,17.91
2023-04-17T10:43:17.232Z,17.92
2023-04-17T10:53:37.765Z,17.92
2023-04-17T10:56:47.405Z,18.01
2023-04-17T11:00:14.396Z,18.03
2023-04-17T11:03:17.571Z,18.11
2023-04-17T11:06:20.959Z,18.03
2023-04-17T11:09:26.712Z,17.93
2023-04-17T11:12:31.701Z,18.03
2023-04-17T11:15:35.474Z,18.11
2023-04-17T11:18:38.110Z,17.97
2023-04-17T11:21:44.288Z,17.90
2023-04-17T11:24:46.403Z,17.98
2023-04-17T11:27:56.615Z,17.98
2023-04-17T11:30:59.774Z,17.91
2023-04-17T11:34:08.225Z,18.04
2023-04-17T11:37:13.859Z,18.05
2023-04-17T11:40:22.693Z,18.11
2023-04-17T11:43:25.061Z,18.24
2023-04-17T11:46:27.538Z,18.14
2023-04-17T11:49:32.095Z,18.15
2023-04-17T11:52:34.566Z,18.23
2023-04-17T11:55:36.953Z,18.30
2023-04-17T11:58:55.598Z,18.36
2023-04-17T12:02:00.724Z,18.33
2023-04-17T12:05:17.705Z,18.38
2023-04-17T12:08:20.341Z,18.54
2023-04-17T12:11:25.757Z,18.67
2023-04-17T12:14:27.965Z,18.66
2023-04-17T12:23:41.892Z,18.48
2023-04-17T12:29:55.283Z,18.45
2023-04-17T12:32:57.473Z,18.41
2023-04-17T12:36:04.751Z,18.45
2023-04-17T12:39:07.308Z,18.27
2023-04-17T12:42:09.761Z,18.40
2023-04-17T12:45:11.932Z,18.42
2023-04-17T12:48:15.239Z,18.42
2023-04-17T12:51:17.313Z,18.53
2023-04-17T12:54:19.711Z,18.55
2023-04-17T12:57:21.854Z,18.55
2023-04-17T13:00:24.621Z,18.64
2023-04-17T13:03:27.054Z,18.53
2023-04-17T13:06:29.780Z,18.64
2023-04-17T13:09:31.931Z,18.56
2023-04-17T13:12:34.285Z,18.44
2023-04-17T13:15:36.895Z,18.48
2023-04-17T13:18:39.286Z,18.53
2023-04-17T13:21:41.432Z,18.52
2023-04-17T13:24:44.346Z,18.51
2023-04-17T13:27:46.623Z,18.42
2023-04-17T13:30:49.063Z,18.37
2023-04-17T13:33:51.244Z,18.33
2023-04-17T13:36:55.094Z,18.34
2023-04-17T13:39:57.374Z,18.29
2023-04-17T13:43:00.422Z,18.22
2023-04-17T13:46:02.714Z,18.23
2023-04-17T13:49:05.236Z,18.17
2023-04-17T13:52:07.743Z,18.11
2023-04-17T13:55:13.006Z,17.98
2023-04-17T13:58:15.175Z,17.78
2023-04-17T14:01:18.336Z,17.74
2023-04-17T14:04:21.587Z,17.41
2023-04-17T14:07:23.923Z,17.33
2023-04-17T14:10:26.389Z,17.22
2023-04-17T14:13:28.613Z,17.12
2023-04-17T14:16:31.190Z,17.08
2023-04-17T14:19:33.431Z,17.02
2023-04-17T14:22:35.884Z,16.97
2023-04-17T14:25:38.195Z,17.08
2023-04-17T14:28:40.652Z,17.20
2023-04-17T14:31:42.854Z,17.28
2023-04-17T14:34:45.596Z,17.34
2023-04-17T14:37:47.741Z,17.43
2023-04-17T14:40:50.783Z,17.35
2023-04-17T14:43:52.902Z,17.48
2023-04-17T14:46:56.882Z,17.52
2023-04-17T14:49:59.280Z,17.59
2023-04-17T14:53:03.415Z,17.67
2023-04-17T14:56:05.889Z,17.62
2023-04-17T14:59:08.371Z,17.71
2023-04-17T15:02:10.893Z,17.72
2023-04-17T15:05:16.470Z,17.70
2023-04-17T15:08:19.335Z,17.78
2023-04-17T15:11:21.893Z,17.69
2023-04-17T15:14:24.047Z,17.67
2023-04-17T15:17:26.502Z,17.65
2023-04-17T15:20:29.455Z,17.65
2023-04-17T15:23:34.439Z,17.73
2023-04-17T15:26:36.591Z,17.69
2023-04-17T15:29:39.556Z,17.62
2023-04-17T15:32:41.999Z,17.61
2023-04-17T15:35:44.424Z,17.59
2023-04-17T15:38:46.517Z,17.65
2023-04-17T15:41:49.852Z,17.61
2023-04-17T15:44:53.076Z,17.62
2023-04-17T15:47:56.202Z,17.77
2023-04-17T15:50:58.319Z,17.72
2023-04-17T15:54:00.737Z,17.69
2023-04-17T15:57:02.834Z,17.58
2023-04-17T16:00:06.475Z,17.54
2023-04-17T16:03:12.240Z,17.52
2023-04-17T16:06:14.747Z,17.58
